map of BMW home
BMW - Airport
Location
City:  Bordj Mokhtar, Adrar, Algeria
Name:Bordj Mokhtar Airport
ICAO:DATM
IATA:BMW

Details
Type:Airport (Aerodrome, Airfield)
Use:Public/Civil, International (customs port of entry)
Latitude:2122'30"N (21.375000)
Longitude:055'26"E (0.923889)
Elevation:1302 ft (397 m)
Variation:0.18W (WMM2015v2 magnetic declination)
0.11 annual change
Runways:1
Longest:9843 × 148 ft (3000 × 45 m)

Time
Time Zone:UTC+1
Local Time:

Weather
METAR:DATM 041400Z 03024KT 4000 DRSA NSC 22/M06 Q1018

Related Locations
Nearby:
Farthest:ONU: 12377 mi / 19918 km
Ono-I-Lau, FJ

Find:

   beyond  
but within

Other Information
Maps:
NOTAMs:
Links:
Sources:

  
  • flag of Algeria
  

Sectional Chart

Flight Planning
at skyvector.com

Satellite Image

Google Maps Satellite view

 

Copyright © 2004-2019 Karl L. Swartz. All rights reserved.
The Great Circle Mapper name and logo are trademarks of the Great Circle Mapper.
All other trademarks mentioned herein belong to their respective owners.
Please see credits for attibutions and further copyright information.

  Follow gcmap on Facebook Follow gcmap on Twitter GCmap on LinkedIn

hCard Microformat

Geo Microformat